createdAt,value
2023-04-04T00:00:59.412Z,-1.92
2023-04-04T00:03:27.809Z,-1.95
2023-04-04T00:05:56.533Z,-1.96
2023-04-04T00:08:25.145Z,-1.98
2023-04-04T00:10:59.721Z,-1.97
2023-04-04T00:13:30.124Z,-1.97
2023-04-04T00:15:58.910Z,-1.97
2023-04-04T00:18:27.380Z,-2.03
2023-04-04T00:20:55.927Z,-2.04
2023-04-04T00:23:24.193Z,-2.03
2023-04-04T00:25:53.478Z,-2.06
2023-04-04T00:28:23.252Z,-2.12
2023-04-04T00:30:53.476Z,-2.16
2023-04-04T00:33:21.918Z,-2.16
2023-04-04T00:35:51.176Z,-2.21
2023-04-04T00:38:19.529Z,-2.18
2023-04-04T00:40:51.539Z,-2.16
2023-04-04T00:43:20.577Z,-2.17
2023-04-04T00:45:49.038Z,-2.17
2023-04-04T00:48:19.566Z,-2.15
2023-04-04T00:50:48.020Z,-2.24
2023-04-04T00:53:16.451Z,-2.22
2023-04-04T00:55:44.970Z,-2.29
2023-04-04T00:58:13.884Z,-2.33
2023-04-04T01:00:43.147Z,-2.28
2023-04-04T01:03:12.877Z,-2.31
2023-04-04T01:05:43.878Z,-2.31
2023-04-04T01:08:12.647Z,-2.40
2023-04-04T01:10:43.666Z,-2.42
2023-04-04T01:13:12.755Z,-2.44
2023-04-04T01:15:41.657Z,-2.44
2023-04-04T01:18:14.183Z,-2.44
2023-04-04T01:20:55.639Z,-2.41
2023-04-04T01:23:37.746Z,-2.34
2023-04-04T01:26:09.492Z,-2.31
2023-04-04T01:28:38.191Z,-2.38
2023-04-04T01:31:15.708Z,-2.44
2023-04-04T01:33:49.429Z,-2.45
2023-04-04T01:36:27.006Z,-2.40
2023-04-04T01:39:06.444Z,-2.42
2023-04-04T01:41:36.753Z,-2.46
2023-04-04T01:44:06.480Z,-2.51
2023-04-04T01:46:37.228Z,-2.51
2023-04-04T01:49:06.058Z,-2.52
2023-04-04T01:51:36.789Z,-2.47
2023-04-04T01:54:06.251Z,-2.52
2023-04-04T01:56:36.432Z,-2.55
2023-04-04T01:59:04.902Z,-2.59
2023-04-04T02:01:33.379Z,-2.60
2023-04-04T02:04:02.486Z,-2.63
2023-04-04T02:06:31.270Z,-2.66
2023-04-04T02:09:00.033Z,-2.74
2023-04-04T02:11:28.497Z,-2.76
2023-04-04T02:13:58.631Z,-2.77
2023-04-04T02:16:28.949Z,-2.72
2023-04-04T02:18:57.877Z,-2.77
2023-04-04T02:21:27.235Z,-2.74
2023-04-04T02:23:55.891Z,-2.72
2023-04-04T02:26:24.297Z,-2.70
2023-04-04T02:28:53.014Z,-2.71
2023-04-04T02:31:23.054Z,-2.74
2023-04-04T02:33:54.196Z,-2.73
2023-04-04T02:36:23.476Z,-2.82
2023-04-04T02:38:54.234Z,-2.85
2023-04-04T02:41:25.834Z,-2.92
2023-04-04T02:43:54.363Z,-2.94
2023-04-04T02:46:24.202Z,-2.92
2023-04-04T02:48:59.273Z,-2.92
2023-04-04T02:51:27.872Z,-2.92
2023-04-04T02:53:59.150Z,-2.96
2023-04-04T02:56:33.931Z,-2.98
2023-04-04T02:59:03.707Z,-2.97
2023-04-04T03:01:33.619Z,-2.99
2023-04-04T03:04:05.786Z,-3.02
2023-04-04T03:06:35.677Z,-3.02
2023-04-04T03:09:05.573Z,-3.00
2023-04-04T03:11:34.115Z,-2.99
2023-04-04T03:14:03.156Z,-2.98
2023-04-04T03:16:38.613Z,-3.01
2023-04-04T03:19:08.170Z,-3.01
2023-04-04T03:21:36.749Z,-3.06
2023-04-04T03:24:05.914Z,-3.11
2023-04-04T03:26:34.270Z,-3.11
2023-04-04T03:29:04.628Z,-3.11
2023-04-04T03:31:33.054Z,-3.11
2023-04-04T03:34:04.494Z,-3.16
2023-04-04T03:36:32.895Z,-3.25
2023-04-04T03:39:01.906Z,-3.26
2023-04-04T03:41:31.106Z,-3.30
2023-04-04T03:43:59.469Z,-3.32
2023-04-04T03:46:29.468Z,-3.38
2023-04-04T03:48:58.162Z,-3.34
2023-04-04T03:51:28.578Z,-3.32
2023-04-04T03:53:57.819Z,-3.33
2023-04-04T03:56:26.554Z,-3.35
2023-04-04T03:58:56.695Z,-3.26
2023-04-04T04:01:25.559Z,-3.30
2023-04-04T04:03:54.337Z,-3.31
2023-04-04T04:06:22.737Z,-3.35
2023-04-04T04:08:52.831Z,-3.38
2023-04-04T04:11:21.377Z,-3.38
2023-04-04T04:13:50.169Z,-3.41
2023-04-04T04:16:19.482Z,-3.41
2023-04-04T04:18:49.846Z,-3.47
2023-04-04T04:21:26.894Z,-3.47
2023-04-04T04:23:56.770Z,-3.49
2023-04-04T04:26:25.143Z,-3.58
2023-04-04T04:28:54.474Z,-3.60
2023-04-04T04:31:29.660Z,-3.60
2023-04-04T04:33:58.832Z,-3.55
2023-04-04T04:36:31.226Z,-3.56
2023-04-04T04:39:16.796Z,-3.56
2023-04-04T04:41:58.609Z,-3.56
2023-04-04T04:44:27.697Z,-3.58
2023-04-04T04:46:57.887Z,-3.57
2023-04-04T04:49:27.441Z,-3.52
2023-04-04T04:51:56.821Z,-3.51
2023-04-04T04:54:26.700Z,-3.56
2023-04-04T04:56:56.774Z,-3.64
2023-04-04T04:59:26.069Z,-3.70
2023-04-04T05:01:55.343Z,-3.73
2023-04-04T05:04:25.379Z,-3.79
2023-04-04T05:07:02.095Z,-3.85
2023-04-04T05:09:32.376Z,-3.85
2023-04-04T05:12:01.030Z,-3.78
2023-04-04T05:14:39.005Z,-3.73
2023-04-04T05:17:08.311Z,-3.67
2023-04-04T05:19:37.632Z,-3.65
2023-04-04T05:22:08.735Z,-3.64
2023-04-04T05:24:46.369Z,-3.61
2023-04-04T05:27:18.414Z,-3.57
2023-04-04T05:29:53.463Z,-3.50
2023-04-04T05:32:23.632Z,-3.35
2023-04-04T05:35:02.477Z,-3.19
2023-04-04T05:37:35.537Z,-3.04
2023-04-04T05:40:08.200Z,-2.91
2023-04-04T05:42:37.440Z,-2.76
2023-04-04T05:45:09.064Z,-2.56
2023-04-04T05:47:37.937Z,-2.33
2023-04-04T05:50:07.475Z,-2.11
2023-04-04T05:52:38.501Z,-1.81
2023-04-04T05:55:12.907Z,-1.35
2023-04-04T05:57:50.231Z,-0.89
2023-04-04T06:00:24.462Z,-0.55
2023-04-04T06:03:03.713Z,-0.25
2023-04-04T06:05:32.638Z,0.02
2023-04-04T06:08:01.456Z,0.08
2023-04-04T06:10:32.134Z,0.30
2023-04-04T06:13:01.292Z,0.46
2023-04-04T06:15:30.844Z,0.63
2023-04-04T06:17:59.216Z,0.67
2023-04-04T06:20:30.571Z,0.91
2023-04-04T06:23:01.054Z,0.99
2023-04-04T06:25:32.230Z,1.30
2023-04-04T06:28:01.564Z,1.64
2023-04-04T06:30:30.321Z,1.49
2023-04-04T06:32:59.380Z,1.83
2023-04-04T06:35:30.061Z,1.98
2023-04-04T06:38:04.261Z,2.11
2023-04-04T06:40:34.353Z,2.22
2023-04-04T06:43:03.400Z,2.37
2023-04-04T06:45:39.994Z,2.62
2023-04-04T06:48:09.084Z,2.79
2023-04-04T06:50:38.872Z,2.78
2023-04-04T06:53:12.301Z,2.75
2023-04-04T06:55:42.620Z,2.82
2023-04-04T06:58:11.249Z,2.77
2023-04-04T07:00:39.767Z,3.37
2023-04-04T07:03:08.371Z,3.57
2023-04-04T07:05:40.284Z,3.44
2023-04-04T07:08:08.680Z,3.39
2023-04-04T07:10:38.077Z,3.23
2023-04-04T07:13:09.789Z,3.56
2023-04-04T07:15:38.332Z,3.71
2023-04-04T07:18:07.997Z,3.91
2023-04-04T07:20:36.462Z,4.38
2023-04-04T07:23:04.777Z,4.29
2023-04-04T07:25:33.393Z,4.40
2023-04-04T07:28:11.592Z,4.72
2023-04-04T07:30:43.358Z,4.48
2023-04-04T07:33:12.233Z,4.57
2023-04-04T07:35:40.706Z,4.96
2023-04-04T07:38:09.563Z,4.95
2023-04-04T07:40:38.156Z,5.30
2023-04-04T07:43:07.380Z,5.30
2023-04-04T07:45:36.366Z,5.24
2023-04-04T07:48:06.811Z,5.81
2023-04-04T07:50:35.132Z,5.63
2023-04-04T07:53:03.494Z,5.74
2023-04-04T07:55:31.832Z,6.07
2023-04-04T07:58:00.157Z,5.88
2023-04-04T08:00:28.562Z,6.59
2023-04-04T08:02:59.472Z,6.68
2023-04-04T08:05:29.770Z,6.89
2023-04-04T08:07:58.877Z,5.12
2023-04-04T08:10:27.859Z,4.02
2023-04-04T08:12:56.211Z,6.19
2023-04-04T08:15:25.043Z,6.62
2023-04-04T08:17:53.655Z,5.06
2023-04-04T08:20:22.532Z,3.65
2023-04-04T08:22:52.532Z,3.98
2023-04-04T08:25:21.036Z,6.32
2023-04-04T08:27:49.460Z,6.33
2023-04-04T08:30:18.148Z,5.29
2023-04-04T08:32:46.808Z,4.44
2023-04-04T08:35:15.916Z,4.39
2023-04-04T08:37:46.915Z,4.85
2023-04-04T08:40:17.620Z,5.30
2023-04-04T08:42:48.288Z,5.04
2023-04-04T08:45:20.214Z,6.73
2023-04-04T08:47:51.629Z,8.14
2023-04-04T08:50:21.592Z,8.17
2023-04-04T08:52:50.956Z,5.59
2023-04-04T08:55:21.202Z,4.10
2023-04-04T08:57:49.614Z,6.07
2023-04-04T09:00:21.508Z,5.79
2023-04-04T09:02:58.886Z,4.06
2023-04-04T09:05:28.252Z,4.37
2023-04-04T09:07:57.984Z,3.90
2023-04-04T09:10:29.487Z,4.65
2023-04-04T09:13:12.611Z,3.59
2023-04-04T09:15:49.557Z,3.83
2023-04-04T09:18:19.082Z,4.26
2023-04-04T09:20:48.886Z,3.60
2023-04-04T09:23:20.632Z,3.10
2023-04-04T09:28:25.518Z,3.57
2023-04-04T09:30:54.702Z,3.22
2023-04-04T09:33:25.694Z,2.79
2023-04-04T09:35:59.401Z,4.67
2023-04-04T09:38:30.948Z,6.70
2023-04-04T09:41:01.132Z,7.88
2023-04-04T09:43:32.700Z,7.48
2023-04-04T09:46:02.372Z,8.14
2023-04-04T09:48:34.743Z,6.70
2023-04-04T09:51:07.052Z,5.17
2023-04-04T09:53:42.173Z,4.48
2023-04-04T09:56:12.851Z,5.86
2023-04-04T09:58:52.483Z,8.19
2023-04-04T10:01:30.926Z,9.50
2023-04-04T10:03:59.847Z,9.31
2023-04-04T10:06:28.762Z,9.96
2023-04-04T10:08:58.486Z,10.63
2023-04-04T10:11:34.434Z,10.49
2023-04-04T10:14:04.744Z,10.95
2023-04-04T10:16:37.963Z,10.77
2023-04-04T10:19:08.842Z,10.48
2023-04-04T10:21:37.741Z,10.45
2023-04-04T10:24:10.082Z,10.45
2023-04-04T10:26:40.009Z,10.77
2023-04-04T10:29:08.455Z,10.84
2023-04-04T10:31:43.704Z,11.01
2023-04-04T10:34:21.800Z,9.93
2023-04-04T10:36:55.008Z,8.40
2023-04-04T10:39:29.661Z,8.70
2023-04-04T10:42:01.937Z,9.38
2023-04-04T10:44:34.293Z,8.77
2023-04-04T10:47:15.652Z,9.19
2023-04-04T10:49:46.784Z,8.92
2023-04-04T10:52:18.664Z,8.35
2023-04-04T10:54:48.586Z,6.70
2023-04-04T10:57:19.259Z,6.48
2023-04-04T11:00:05.441Z,8.47
2023-04-04T11:02:54.596Z,10.24
2023-04-04T11:05:26.681Z,9.15
2023-04-04T11:10:34.610Z,6.97
2023-04-04T11:13:14.165Z,7.29
2023-04-04T11:15:57.908Z,7.64
2023-04-04T11:18:47.883Z,8.88
2023-04-04T11:21:18.434Z,8.96
2023-04-04T11:24:16.773Z,8.81
2023-04-04T11:26:47.151Z,10.14
2023-04-04T11:29:52.972Z,10.99
2023-04-04T11:32:52.979Z,10.54
2023-04-04T11:35:29.242Z,10.71
2023-04-04T11:38:03.716Z,11.77
2023-04-04T11:40:41.272Z,11.35
2023-04-04T11:43:13.585Z,11.27
2023-04-04T11:45:47.907Z,11.67
2023-04-04T11:48:19.905Z,12.38
2023-04-04T11:50:53.270Z,11.92
2023-04-04T11:53:22.196Z,10.78
2023-04-04T11:55:54.847Z,9.46
2023-04-04T11:58:24.226Z,7.87
2023-04-04T12:00:54.093Z,6.59
2023-04-04T12:03:23.802Z,6.14
2023-04-04T12:05:52.926Z,5.42
2023-04-04T12:08:23.955Z,5.12
2023-04-04T12:10:53.549Z,5.57
2023-04-04T12:13:21.885Z,8.40
2023-04-04T12:15:51.199Z,10.48
2023-04-04T12:18:24.393Z,11.22
2023-04-04T12:20:53.460Z,11.97
2023-04-04T12:23:23.856Z,11.58
2023-04-04T12:25:54.966Z,11.65
2023-04-04T12:28:24.299Z,12.41
2023-04-04T12:30:53.466Z,12.68
2023-04-04T12:33:24.531Z,11.68
2023-04-04T12:35:54.896Z,12.13
2023-04-04T12:38:23.600Z,12.29
2023-04-04T12:40:53.104Z,12.89
2023-04-04T12:43:21.876Z,11.16
2023-04-04T12:45:52.639Z,8.54
2023-04-04T12:48:22.848Z,7.12
2023-04-04T12:50:58.346Z,7.49
2023-04-04T12:53:30.200Z,7.31
2023-04-04T12:56:03.694Z,7.23
2023-04-04T12:58:35.946Z,7.35
2023-04-04T13:01:08.320Z,7.88
2023-04-04T13:03:37.968Z,7.52
2023-04-04T13:06:15.297Z,6.53
2023-04-04T13:08:54.302Z,6.05
2023-04-04T13:11:23.753Z,5.62
2023-04-04T13:14:03.392Z,5.60
2023-04-04T13:16:35.623Z,5.37
2023-04-04T13:19:05.197Z,7.93
2023-04-04T13:21:36.304Z,9.59
2023-04-04T13:24:05.140Z,11.25
2023-04-04T13:26:33.438Z,12.05
2023-04-04T13:29:01.857Z,10.85
2023-04-04T13:31:30.241Z,9.98
2023-04-04T13:33:58.511Z,8.60
2023-04-04T13:36:28.401Z,7.21
2023-04-04T13:38:58.276Z,6.28
2023-04-04T13:41:26.707Z,6.32
2023-04-04T13:43:56.600Z,6.26
2023-04-04T13:46:25.117Z,6.39
2023-04-04T13:48:53.546Z,6.33
2023-04-04T13:51:24.443Z,6.35
2023-04-04T13:53:52.804Z,6.48
2023-04-04T13:56:24.190Z,7.03
2023-04-04T13:58:54.019Z,7.56
2023-04-04T14:01:23.589Z,8.83
2023-04-04T14:03:52.716Z,9.56
2023-04-04T14:06:21.179Z,10.91
2023-04-04T14:08:49.808Z,10.43
2023-04-04T14:11:18.246Z,9.35
2023-04-04T14:13:48.092Z,10.97
2023-04-04T14:16:16.920Z,12.52
2023-04-04T14:18:45.569Z,11.79
2023-04-04T14:21:13.937Z,10.08
2023-04-04T14:23:42.232Z,9.25
2023-04-04T14:26:10.529Z,7.45
2023-04-04T14:28:39.615Z,8.33
2023-04-04T14:31:09.366Z,9.84
2023-04-04T14:33:37.904Z,9.46
2023-04-04T14:36:06.627Z,8.63
2023-04-04T14:38:34.905Z,8.37
2023-04-04T14:41:03.314Z,7.43
2023-04-04T14:43:31.605Z,6.61
2023-04-04T14:46:00.180Z,6.45
2023-04-04T14:48:29.888Z,6.16
2023-04-04T14:50:58.363Z,6.43
2023-04-04T14:53:27.542Z,9.48
2023-04-04T14:55:55.998Z,10.44
2023-04-04T14:58:24.296Z,11.58
2023-04-04T15:00:52.878Z,11.42
2023-04-04T15:03:21.535Z,10.62
2023-04-04T15:05:51.840Z,9.75
2023-04-04T15:08:20.287Z,8.63
2023-04-04T15:10:48.694Z,7.14
2023-04-04T15:13:17.328Z,6.23
2023-04-04T15:15:46.228Z,5.90
2023-04-04T15:18:14.598Z,5.46
2023-04-04T15:20:43.639Z,4.87
2023-04-04T15:23:14.021Z,6.13
2023-04-04T15:25:42.611Z,7.92
2023-04-04T15:28:11.207Z,8.96
2023-04-04T15:30:39.872Z,10.00
2023-04-04T15:33:08.323Z,11.13
2023-04-04T15:35:37.011Z,12.35
2023-04-04T15:38:05.435Z,11.83
2023-04-04T15:40:35.167Z,10.86
2023-04-04T15:43:03.510Z,11.13
2023-04-04T15:45:32.873Z,12.88
2023-04-04T15:48:01.394Z,11.41
2023-04-04T15:50:30.155Z,9.31
2023-04-04T15:52:58.763Z,7.93
2023-04-04T15:55:29.441Z,6.58
2023-04-04T15:57:59.207Z,5.63
2023-04-04T16:00:29.349Z,5.42
2023-04-04T16:02:59.249Z,5.07
2023-04-04T16:05:28.429Z,6.03
2023-04-04T16:07:56.765Z,7.38
2023-04-04T16:10:25.665Z,8.34
2023-04-04T16:12:54.077Z,7.41
2023-04-04T16:15:23.811Z,7.57
2023-04-04T16:17:53.805Z,7.95
2023-04-04T16:20:22.422Z,7.88
2023-04-04T16:22:50.878Z,7.93
2023-04-04T16:25:19.804Z,8.03
2023-04-04T16:27:48.524Z,7.50
2023-04-04T16:30:17.314Z,7.49
2023-04-04T16:32:47.795Z,7.06
2023-04-04T16:35:16.472Z,6.38
2023-04-04T16:37:44.825Z,5.58
2023-04-04T16:40:15.450Z,5.44
2023-04-04T16:42:44.224Z,4.98
2023-04-04T16:45:16.721Z,4.58
2023-04-04T16:47:46.377Z,4.50
2023-04-04T16:50:14.787Z,4.50
2023-04-04T16:52:43.405Z,4.11
2023-04-04T16:55:11.932Z,3.99
2023-04-04T16:57:41.501Z,3.73
2023-04-04T17:00:11.241Z,3.52
2023-04-04T17:02:45.357Z,3.47
2023-04-04T17:05:16.225Z,3.33
2023-04-04T17:07:45.028Z,3.27
2023-04-04T17:10:16.241Z,3.28
2023-04-04T17:12:44.971Z,3.37
2023-04-04T17:15:14.532Z,3.32
2023-04-04T17:17:46.726Z,3.25
2023-04-04T17:20:19.214Z,3.06
2023-04-04T17:22:49.754Z,2.91
2023-04-04T17:25:20.730Z,2.77
2023-04-04T17:27:49.191Z,2.65
2023-04-04T17:30:17.655Z,2.56
2023-04-04T17:32:47.349Z,2.48
2023-04-04T17:35:17.609Z,2.32
2023-04-04T17:37:45.935Z,2.20
2023-04-04T17:40:15.249Z,1.97
2023-04-04T17:42:43.613Z,1.91
2023-04-04T17:45:12.613Z,1.83
2023-04-04T17:47:41.143Z,1.73
2023-04-04T17:50:10.835Z,1.52
2023-04-04T17:52:40.873Z,1.27
2023-04-04T17:55:11.360Z,1.23
2023-04-04T17:57:39.899Z,1.25
2023-04-04T18:00:10.977Z,1.26
2023-04-04T18:02:39.367Z,1.20
2023-04-04T18:05:10.161Z,0.86
2023-04-04T18:07:39.957Z,0.42
2023-04-04T18:10:09.954Z,-0.27
2023-04-04T18:12:39.230Z,-0.63
2023-04-04T18:15:09.201Z,-0.80
2023-04-04T18:17:38.398Z,-1.00
2023-04-04T18:20:10.565Z,-1.25
2023-04-04T18:22:43.061Z,-1.39
2023-04-04T18:25:11.927Z,-1.36
2023-04-04T18:27:40.409Z,-1.50
2023-04-04T18:30:10.616Z,-1.56
2023-04-04T18:32:39.576Z,-1.59
2023-04-04T18:35:08.997Z,-1.55
2023-04-04T18:37:37.360Z,-1.51
2023-04-04T18:40:09.235Z,-1.42
2023-04-04T18:42:37.823Z,-1.57
2023-04-04T18:45:09.904Z,-1.52
2023-04-04T18:47:39.266Z,-1.47
2023-04-04T18:50:09.606Z,-1.54
2023-04-04T18:52:37.985Z,-1.64
2023-04-04T18:55:09.336Z,-1.68
2023-04-04T18:57:38.317Z,-1.66
2023-04-04T19:00:09.746Z,-1.69
2023-04-04T19:02:38.438Z,-1.70
2023-04-04T19:05:09.185Z,-1.55
2023-04-04T19:07:39.110Z,-1.50
2023-04-04T19:10:10.582Z,-1.55
2023-04-04T19:12:38.905Z,-1.58
2023-04-04T19:15:08.702Z,-1.61
2023-04-04T19:17:37.456Z,-1.66
2023-04-04T19:20:07.378Z,-1.61
2023-04-04T19:22:36.188Z,-1.62
2023-04-04T19:25:05.142Z,-1.60
2023-04-04T19:27:34.945Z,-1.54
2023-04-04T19:30:12.513Z,-1.50
2023-04-04T19:32:41.170Z,-1.55
2023-04-04T19:35:24.151Z,-1.54
2023-04-04T19:37:52.484Z,-1.55
2023-04-04T19:40:49.991Z,-1.60
2023-04-04T19:43:23.104Z,-1.53
2023-04-04T19:45:53.546Z,-1.42
2023-04-04T19:48:46.145Z,-1.41
2023-04-04T19:51:49.594Z,-1.45
2023-04-04T19:54:24.965Z,-1.51
2023-04-04T19:57:01.222Z,-1.60
2023-04-04T20:00:01.933Z,-1.61
2023-04-04T20:02:57.104Z,-1.63
2023-04-04T20:06:06.107Z,-1.70
2023-04-04T20:08:44.381Z,-1.73
2023-04-04T20:11:13.961Z,-1.62
2023-04-04T20:13:43.139Z,-1.55
2023-04-04T20:16:15.674Z,-1.51
2023-04-04T20:18:46.157Z,-1.47
2023-04-04T20:21:17.826Z,-1.54
2023-04-04T20:23:52.480Z,-1.56
2023-04-04T20:26:52.463Z,-1.60
2023-04-04T20:29:23.192Z,-1.66
2023-04-04T20:31:55.482Z,-1.64
2023-04-04T20:34:50.292Z,-1.68
2023-04-04T20:37:22.793Z,-1.72
2023-04-04T20:39:55.780Z,-1.64
2023-04-04T20:42:41.884Z,-1.56
2023-04-04T20:45:46.577Z,-1.55
2023-04-04T20:48:38.716Z,-1.51
2023-04-04T20:51:28.705Z,-1.46
2023-04-04T20:54:00.052Z,-1.39
2023-04-04T20:56:52.439Z,-1.41
2023-04-04T20:59:34.058Z,-1.47
2023-04-04T21:02:16.907Z,-1.48
2023-04-04T21:04:49.742Z,-1.45
2023-04-04T21:07:41.377Z,-1.52
2023-04-04T21:10:24.659Z,-1.73
2023-04-04T21:12:53.898Z,-1.84
2023-04-04T21:15:28.631Z,-1.83
2023-04-04T21:17:59.973Z,-1.86
2023-04-04T21:21:18.632Z,-1.82
2023-04-04T21:23:55.598Z,-1.77
2023-04-04T21:26:35.758Z,-1.50
2023-04-04T21:29:07.762Z,-1.52
2023-04-04T21:31:39.573Z,-1.59
2023-04-04T21:34:15.166Z,-1.59
2023-04-04T21:36:46.267Z,-1.74
2023-04-04T21:39:22.152Z,-1.95
2023-04-04T21:41:54.771Z,-2.04
2023-04-04T21:44:24.640Z,-2.05
2023-04-04T21:46:54.406Z,-2.08
2023-04-04T21:49:23.088Z,-2.06
2023-04-04T21:51:52.984Z,-2.12
2023-04-04T21:54:21.661Z,-2.07
2023-04-04T21:56:50.213Z,-2.04
2023-04-04T21:59:18.659Z,-2.03
2023-04-04T22:01:46.903Z,-2.10
2023-04-04T22:04:15.383Z,-2.21
2023-04-04T22:06:43.963Z,-2.15
2023-04-04T22:09:16.120Z,-2.18
2023-04-04T22:11:45.306Z,-2.22
2023-04-04T22:14:17.647Z,-2.24
2023-04-04T22:16:46.872Z,-2.18
2023-04-04T22:19:15.318Z,-2.23
2023-04-04T22:21:48.248Z,-2.21
2023-04-04T22:24:18.826Z,-2.12
2023-04-04T22:26:47.467Z,-2.14
2023-04-04T22:29:16.047Z,-2.22
2023-04-04T22:31:44.972Z,-2.18
2023-04-04T22:34:15.147Z,-2.13
2023-04-04T22:36:44.599Z,-2.27
2023-04-04T22:39:16.108Z,-2.32
2023-04-04T22:41:46.186Z,-2.32
2023-04-04T22:44:14.536Z,-2.23
2023-04-04T22:46:43.018Z,-2.25
2023-04-04T22:49:11.321Z,-2.29
2023-04-04T22:51:45.780Z,-2.34
2023-04-04T22:54:15.650Z,-2.35
2023-04-04T22:56:46.074Z,-2.33
2023-04-04T22:59:14.931Z,-2.28
2023-04-04T23:01:43.342Z,-2.37
2023-04-04T23:04:11.920Z,-2.42
2023-04-04T23:06:40.593Z,-2.29
2023-04-04T23:09:09.315Z,-2.09
2023-04-04T23:11:38.850Z,-2.13
2023-04-04T23:14:09.945Z,-2.11
2023-04-04T23:16:40.107Z,-2.15
2023-04-04T23:19:08.545Z,-2.08
2023-04-04T23:21:37.509Z,-2.04
2023-04-04T23:24:07.785Z,-1.98
2023-04-04T23:26:36.333Z,-1.92
2023-04-04T23:29:05.710Z,-1.92
2023-04-04T23:31:36.402Z,-1.87
2023-04-04T23:34:05.099Z,-1.84
2023-04-04T23:36:34.423Z,-1.81
2023-04-04T23:39:03.454Z,-1.84
2023-04-04T23:41:32.237Z,-2.04
2023-04-04T23:44:01.029Z,-2.08
2023-04-04T23:46:34.185Z,-2.00
2023-04-04T23:49:04.109Z,-1.95
2023-04-04T23:51:38.303Z,-1.90
2023-04-04T23:54:07.575Z,-1.89
2023-04-04T23:56:37.175Z,-1.88
2023-04-04T23:59:06.537Z,-1.93
